Time;durP1;ratioP1;P1;durP2;ratioP2;P2;SDS_P1;SDS_P2;PMS_P1;PMS_P2;Temp;Humidity;BMP_temperature;BMP_pressure;BME280_temperature;BME280_humidity;BME280_pressure;Samples;Min_cycle;Max_cycle;Signal;HPM_P1;HPM_P2
2023/04/17 00:02:24;;;;;;;9.85;8.32;;;20.50;66.10;;;;;;4992400;28;86174;-86
2023/04/17 00:04:51;;;;;;;10.57;9.18;;;20.50;66.20;;;;;;4991178;28;87391;-85
2023/04/17 00:10:38;;;;;;;9.50;8.25;;;20.40;66.10;;;;;;4971123;28;87125;-86
2023/04/17 00:13:04;;;;;;;9.80;8.18;;;20.40;66.10;;;;;;4985288;28;86012;-87
2023/04/17 00:15:29;;;;;;;10.55;8.93;;;20.40;66.20;;;;;;4981567;28;87149;-86
2023/04/17 00:17:55;;;;;;;9.60;8.02;;;20.40;66.20;;;;;;4988669;28;86172;-86
2023/04/17 00:20:23;;;;;;;10.60;7.75;;;20.40;66.10;;;;;;5007448;28;86009;-86
2023/04/17 00:22:49;;;;;;;9.27;7.47;;;20.40;66.10;;;;;;4993616;28;86369;-86
2023/04/17 00:25:14;;;;;;;9.45;8.40;;;20.40;66.20;;;;;;4991164;28;86055;-85
2023/04/17 00:27:41;;;;;;;8.93;7.90;;;20.40;66.20;;;;;;4988778;28;86774;-86
2023/04/17 00:30:08;;;;;;;9.82;7.72;;;20.40;66.30;;;;;;4987068;28;86199;-86
2023/04/17 00:32:33;;;;;;;7.97;7.18;;;20.30;66.30;;;;;;4989345;28;86535;-86
2023/04/17 00:35:00;;;;;;;10.45;8.25;;;20.40;66.40;;;;;;4990521;28;85676;-86
2023/04/17 00:37:26;;;;;;;11.18;9.13;;;20.30;66.60;;;;;;4988308;28;88505;-86
2023/04/17 00:39:51;;;;;;;9.40;7.65;;;20.30;66.40;;;;;;4989328;28;85708;-86
2023/04/17 00:42:17;;;;;;;10.80;8.27;;;20.30;66.40;;;;;;4990251;28;85696;-86
2023/04/17 00:44:42;;;;;;;9.82;8.35;;;20.30;66.20;;;;;;4991494;28;86646;-87
2023/04/17 00:47:08;;;;;;;9.00;8.00;;;20.30;66.40;;;;;;4992605;28;86453;-86
2023/04/17 00:49:34;;;;;;;8.82;7.93;;;20.30;66.20;;;;;;4993115;28;85636;-86
2023/04/17 00:52:00;;;;;;;10.25;8.23;;;20.30;66.10;;;;;;4993367;28;86261;-85
2023/04/17 00:54:26;;;;;;;9.07;8.00;;;20.30;66.10;;;;;;5008666;28;89318;-86
2023/04/17 00:56:53;;;;;;;9.23;7.60;;;20.30;66.00;;;;;;4995416;28;85914;-86
2023/04/17 00:59:19;;;;;;;8.55;7.60;;;20.30;66.00;;;;;;4992483;28;85604;-86
2023/04/17 01:01:45;;;;;;;9.95;8.38;;;20.30;66.10;;;;;;4993805;28;86015;-86
2023/04/17 01:04:11;;;;;;;9.65;8.13;;;20.20;66.00;;;;;;5006452;28;90695;-87
2023/04/17 01:06:36;;;;;;;9.32;7.53;;;20.20;66.20;;;;;;4992352;28;87028;-86
2023/04/17 01:09:03;;;;;;;9.48;8.13;;;20.20;66.30;;;;;;4992185;28;86071;-86
2023/04/17 01:11:29;;;;;;;9.07;8.07;;;20.20;66.00;;;;;;4991985;28;86096;-86
2023/04/17 01:13:55;;;;;;;9.07;8.07;;;20.20;66.10;;;;;;4991994;28;89656;-86
2023/04/17 01:16:20;;;;;;;9.10;7.47;;;20.20;66.10;;;;;;4993610;28;86566;-86
2023/04/17 01:18:50;;;;;;;9.60;8.50;;;20.20;66.20;;;;;;4994007;28;85974;-86
2023/04/17 01:21:15;;;;;;;8.77;7.00;;;20.20;66.00;;;;;;4992848;28;85838;-86
2023/04/17 01:23:47;;;;;;;9.30;7.80;;;20.20;66.20;;;;;;4993233;28;87246;-86
2023/04/17 01:26:23;;;;;;;8.38;7.50;;;20.20;66.20;;;;;;4991557;28;86049;-86
2023/04/17 01:28:56;;;;;;;8.57;7.60;;;20.20;65.90;;;;;;4992748;28;85672;-86
2023/04/17 01:31:23;;;;;;;9.50;7.85;;;20.20;65.90;;;;;;4994356;28;86217;-86
2023/04/17 01:33:50;;;;;;;9.50;7.70;;;20.20;66.00;;;;;;4992463;28;86987;-86
2023/04/17 01:36:16;;;;;;;11.07;7.80;;;20.20;66.00;;;;;;4991021;28;86853;-86
2023/04/17 01:38:42;;;;;;;8.38;7.47;;;20.20;66.20;;;;;;4993046;28;85664;-86
2023/04/17 01:41:10;;;;;;;8.60;7.32;;;20.10;65.90;;;;;;4993542;28;85785;-87
2023/04/17 01:43:38;;;;;;;10.20;8.33;;;20.10;66.00;;;;;;4992246;28;87361;-86
2023/04/17 01:46:04;;;;;;;8.50;7.43;;;20.10;66.00;;;;;;5006318;28;89855;-86
2023/04/17 01:48:30;;;;;;;9.57;7.95;;;20.10;66.10;;;;;;4993655;28;86378;-86
2023/04/17 01:54:19;;;;;;;8.40;7.47;;;20.10;65.90;;;;;;4991085;28;86206;-86
2023/04/17 01:56:45;;;;;;;8.75;7.85;;;20.10;66.00;;;;;;4991269;28;86799;-86
2023/04/17 01:59:11;;;;;;;9.23;7.57;;;20.10;65.90;;;;;;4991535;28;85620;-86
2023/04/17 02:01:36;;;;;;;10.60;8.25;;;20.10;66.00;;;;;;4993761;28;85993;-86
2023/04/17 02:04:02;;;;;;;7.25;6.50;;;20.10;65.90;;;;;;4992999;28;87377;-86
2023/04/17 02:06:28;;;;;;;8.05;7.25;;;20.10;66.20;;;;;;4992232;28;86871;-86
2023/04/17 02:08:54;;;;;;;9.40;7.60;;;20.10;65.90;;;;;;4991779;28;85710;-86
2023/04/17 02:11:19;;;;;;;9.35;7.65;;;20.10;65.90;;;;;;4991979;28;86068;-87
2023/04/17 02:13:45;;;;;;;7.97;7.18;;;20.10;66.10;;;;;;4993968;28;87506;-86
2023/04/17 02:16:11;;;;;;;8.32;7.43;;;20.10;66.10;;;;;;4992459;28;87382;-86
2023/04/17 02:18:38;;;;;;;8.40;7.53;;;20.10;66.00;;;;;;4993557;28;86002;-86
2023/04/17 02:21:04;;;;;;;8.35;7.07;;;20.10;65.90;;;;;;5006213;28;86365;-86
2023/04/17 02:23:30;;;;;;;7.75;6.97;;;20.10;66.00;;;;;;4993533;28;87388;-87
2023/04/17 02:25:56;;;;;;;9.60;7.78;;;20.10;66.00;;;;;;4991111;28;86944;-86
2023/04/17 02:28:21;;;;;;;7.90;7.10;;;20.10;66.00;;;;;;5006219;28;85730;-86
2023/04/17 02:30:47;;;;;;;8.70;7.55;;;20.10;66.00;;;;;;4990487;28;86483;-86
2023/04/17 02:33:13;;;;;;;8.43;7.22;;;20.10;66.00;;;;;;5007078;28;90260;-86
2023/04/17 02:35:38;;;;;;;8.43;7.43;;;20.00;65.80;;;;;;4993237;28;86780;-86
2023/04/17 02:38:04;;;;;;;8.27;6.80;;;20.00;65.90;;;;;;4992474;28;85699;-86
2023/04/17 02:40:29;;;;;;;8.55;7.65;;;20.00;66.00;;;;;;4992979;28;85761;-86
2023/04/17 02:42:55;;;;;;;9.30;7.57;;;20.00;65.80;;;;;;4992009;28;87156;-86
2023/04/17 02:45:21;;;;;;;12.65;7.45;;;20.00;65.80;;;;;;4991406;28;86281;-86
2023/04/17 02:47:47;;;;;;;8.05;7.25;;;20.00;65.80;;;;;;4992802;28;85732;-85
2023/04/17 02:50:12;;;;;;;7.57;6.85;;;20.00;65.80;;;;;;4990079;28;85771;-86
2023/04/17 02:52:38;;;;;;;7.47;6.75;;;20.00;66.10;;;;;;4993909;28;87423;-86
2023/04/17 02:55:05;;;;;;;7.68;6.68;;;20.00;65.90;;;;;;4992217;28;86570;-86
2023/04/17 02:57:31;;;;;;;8.75;7.50;;;20.00;65.90;;;;;;4991331;28;86294;-85
2023/04/17 02:59:57;;;;;;;7.63;6.78;;;20.00;65.90;;;;;;4994040;28;85697;-86
2023/04/17 03:02:41;;;;;;;7.85;7.00;;;20.00;65.90;;;;;;4992849;28;87439;-86
2023/04/17 03:05:08;;;;;;;8.05;7.25;;;20.00;65.90;;;;;;4994300;28;86833;-86
2023/04/17 03:07:33;;;;;;;8.63;6.63;;;20.00;65.90;;;;;;4991369;28;86057;-86
2023/04/17 03:09:59;;;;;;;7.72;6.93;;;20.00;65.90;;;;;;4990742;28;85947;-86
2023/04/17 03:12:24;;;;;;;8.40;7.50;;;20.00;65.90;;;;;;4989175;28;86236;-85
2023/04/17 03:14:50;;;;;;;8.13;7.25;;;19.90;65.70;;;;;;4989898;28;86827;-86
2023/04/17 03:17:16;;;;;;;7.50;6.75;;;20.00;65.80;;;;;;4990851;28;86291;-86
2023/04/17 03:19:42;;;;;;;7.50;6.70;;;20.00;65.80;;;;;;4992314;28;86119;-86
2023/04/17 03:22:07;;;;;;;7.22;6.53;;;20.00;65.70;;;;;;4992185;28;86140;-86
2023/04/17 03:24:33;;;;;;;8.02;6.93;;;20.00;65.80;;;;;;4990616;28;86444;-85
2023/04/17 03:27:05;;;;;;;8.20;7.13;;;20.00;65.70;;;;;;4989483;28;85696;-86
2023/04/17 03:29:31;;;;;;;7.80;6.82;;;19.90;65.70;;;;;;4990232;28;86357;-86
2023/04/17 03:31:56;;;;;;;7.82;7.03;;;19.90;65.70;;;;;;5006732;28;90823;-86
2023/04/17 03:34:22;;;;;;;7.80;6.70;;;19.90;65.70;;;;;;4991329;28;86906;-86
2023/04/17 03:36:48;;;;;;;8.05;7.25;;;19.90;65.70;;;;;;4988666;28;86230;-86
2023/04/17 03:42:35;;;;;;;7.30;6.60;;;19.90;65.70;;;;;;4987050;28;86479;-86
2023/04/17 03:45:03;;;;;;;7.15;6.45;;;19.90;65.70;;;;;;4988317;28;86566;-85
2023/04/17 03:47:29;;;;;;;7.65;6.85;;;19.90;65.90;;;;;;4988387;28;86061;-87
2023/04/17 03:49:55;;;;;;;9.15;6.78;;;19.90;65.70;;;;;;4993279;28;85810;-86
2023/04/17 03:52:32;;;;;;;9.07;7.05;;;19.90;65.90;;;;;;5006284;28;90103;-87
2023/04/17 03:54:58;;;;;;;7.63;6.90;;;19.90;65.90;;;;;;4989634;28;86260;-87
2023/04/17 03:57:24;;;;;;;7.75;6.93;;;19.90;66.00;;;;;;4989300;28;86297;-86
2023/04/17 03:59:49;;;;;;;7.40;6.60;;;19.90;66.00;;;;;;4990125;28;86214;-86
2023/04/17 04:02:15;;;;;;;7.60;6.80;;;19.90;66.00;;;;;;5004307;28;89517;-86
2023/04/17 04:04:41;;;;;;;6.90;6.20;;;19.90;65.90;;;;;;4990676;28;85868;-86
2023/04/17 04:07:06;;;;;;;7.50;6.30;;;19.90;65.80;;;;;;4990954;28;86363;-86
2023/04/17 04:09:32;;;;;;;7.60;6.80;;;19.90;65.90;;;;;;4988798;28;86021;-86
2023/04/17 04:12:01;;;;;;;8.20;6.60;;;19.80;65.80;;;;;;4993931;28;87034;-86
2023/04/17 04:14:26;;;;;;;7.05;6.38;;;19.80;65.80;;;;;;4989497;28;86128;-87
2023/04/17 04:16:52;;;;;;;7.60;6.65;;;19.80;65.80;;;;;;4990790;28;86174;-87
2023/04/17 04:19:17;;;;;;;7.70;6.90;;;19.90;66.00;;;;;;4993854;28;86257;-87
2023/04/17 04:21:43;;;;;;;8.35;6.70;;;19.80;65.60;;;;;;4994300;28;87066;-86
2023/04/17 04:24:12;;;;;;;7.68;6.85;;;19.80;65.70;;;;;;4994624;28;86879;-86
2023/04/17 04:26:39;;;;;;;7.30;6.60;;;19.80;65.70;;;;;;4994830;28;85638;-86
2023/04/17 04:29:05;;;;;;;8.68;6.32;;;19.80;65.70;;;;;;4996951;28;86044;-86
2023/04/17 04:31:31;;;;;;;7.53;6.82;;;19.80;65.60;;;;;;5010751;28;89150;-86
2023/04/17 04:33:57;;;;;;;8.70;6.80;;;19.80;65.70;;;;;;4994897;28;86590;-86
2023/04/17 04:36:24;;;;;;;7.20;6.47;;;19.80;65.60;;;;;;4996427;28;85727;-87
2023/04/17 04:38:49;;;;;;;6.68;6.03;;;19.80;65.60;;;;;;4996329;28;86119;-87
2023/04/17 04:41:16;;;;;;;7.18;6.47;;;19.80;65.70;;;;;;4993187;28;87383;-86
2023/04/17 04:43:44;;;;;;;7.65;6.43;;;19.80;65.70;;;;;;4994390;28;85919;-86
2023/04/17 04:46:10;;;;;;;6.68;5.97;;;19.80;65.70;;;;;;4991008;28;85840;-86
2023/04/17 04:48:36;;;;;;;7.10;6.22;;;19.80;66.50;;;;;;4995374;28;85997;-86
2023/04/17 04:51:01;;;;;;;7.53;6.78;;;19.80;65.60;;;;;;4989357;28;86867;-86
2023/04/17 04:53:27;;;;;;;6.88;6.18;;;19.70;65.60;;;;;;4992252;28;86602;-86
2023/04/17 04:55:53;;;;;;;7.38;6.65;;;19.80;65.70;;;;;;4993710;28;85727;-86
2023/04/17 04:58:19;;;;;;;7.43;6.63;;;19.70;65.70;;;;;;4989775;28;85667;-86
2023/04/17 05:00:44;;;;;;;6.97;6.28;;;19.70;65.60;;;;;;5004907;28;89136;-86
2023/04/17 05:03:11;;;;;;;7.45;6.65;;;19.70;65.60;;;;;;5007966;28;89715;-86
2023/04/17 05:05:37;;;;;;;7.82;7.03;;;19.70;65.60;;;;;;4991735;28;89742;-86
2023/04/17 05:08:02;;;;;;;6.95;6.20;;;19.70;65.60;;;;;;4993541;28;86155;-86
2023/04/17 05:10:28;;;;;;;6.72;6.00;;;19.70;65.60;;;;;;4992484;28;87285;-86
2023/04/17 05:12:53;;;;;;;7.22;6.53;;;19.70;65.60;;;;;;4992530;28;86245;-87
2023/04/17 05:18:55;;;;;;;6.95;6.20;;;19.70;65.40;;;;;;4987328;28;86682;-86
2023/04/17 05:21:21;;;;;;;7.82;6.65;;;19.80;65.20;;;;;;4993207;28;87190;-87
2023/04/17 05:23:46;;;;;;;6.65;6.05;;;19.80;64.80;;;;;;4994629;28;86027;-89
2023/04/17 05:26:12;;;;;;;7.90;7.10;;;19.80;65.00;;;;;;4993454;28;85593;-86
2023/04/17 05:28:37;;;;;;;7.93;7.13;;;19.90;65.50;;;;;;4993653;28;86122;-86
2023/04/17 05:31:09;;;;;;;7.78;6.75;;;19.90;66.00;;;;;;4991783;28;86860;-92
2023/04/17 05:33:34;;;;;;;8.85;7.32;;;20.00;65.80;;;;;;4993974;28;85788;-90
2023/04/17 05:36:00;;;;;;;8.18;6.95;;;20.00;65.70;;;;;;4995768;28;85619;-92
2023/04/17 05:38:26;;;;;;;7.88;7.07;;;20.00;65.70;;;;;;4995480;28;85772;-92
2023/04/17 05:40:52;;;;;;;8.88;7.90;;;20.00;65.80;;;;;;4996777;28;87327;-90
2023/04/17 05:43:17;;;;;;;8.77;7.45;;;20.00;65.80;;;;;;4990929;28;87507;-88
2023/04/17 05:45:44;;;;;;;8.27;7.45;;;20.00;65.90;;;;;;4990113;28;90026;-89
2023/04/17 05:48:10;;;;;;;10.25;8.32;;;20.10;65.60;;;;;;5010805;28;87354;-86
2023/04/17 05:50:38;;;;;;;9.02;7.55;;;20.10;65.70;;;;;;5007333;28;87525;-85
2023/04/17 05:53:03;;;;;;;9.55;7.95;;;20.10;65.40;;;;;;5007897;28;89339;-85
2023/04/17 05:55:29;;;;;;;8.57;7.78;;;20.20;65.40;;;;;;4990749;28;93134;-85
2023/04/17 05:57:55;;;;;;;8.68;7.25;;;20.20;65.30;;;;;;5009161;28;87100;-84
2023/04/17 06:00:21;;;;;;;8.88;6.95;;;20.40;65.20;;;;;;5008754;28;87787;-87
2023/04/17 06:02:47;;;;;;;8.88;6.90;;;20.50;65.00;;;;;;5009126;28;87204;-86
2023/04/17 06:05:13;;;;;;;9.77;7.38;;;20.50;65.10;;;;;;5010030;28;91635;-87
2023/04/17 06:07:39;;;;;;;8.00;7.20;;;20.50;64.90;;;;;;5009644;28;87166;-86
2023/04/17 06:10:07;;;;;;;8.23;6.60;;;20.50;64.90;;;;;;5007118;28;87344;-85
2023/04/17 06:12:34;;;;;;;8.63;6.50;;;20.50;65.20;;;;;;5006544;28;88281;-86
2023/04/17 06:15:00;;;;;;;9.88;7.30;;;20.50;65.90;;;;;;5007261;28;91580;-86
2023/04/17 06:21:59;;;;;;;8.10;7.30;;;20.50;65.00;;;;;;4960569;28;87002;-86
2023/04/17 06:24:25;;;;;;;7.63;6.80;;;20.50;65.10;;;;;;4991245;28;90918;-87
2023/04/17 06:26:51;;;;;;;7.63;6.75;;;20.40;65.40;;;;;;4992828;28;88482;-87
2023/04/17 06:29:16;;;;;;;8.18;7.35;;;20.40;65.70;;;;;;4992123;28;87619;-87
2023/04/17 06:31:42;;;;;;;9.20;7.65;;;20.40;65.90;;;;;;4989936;28;88937;-87
2023/04/17 06:34:07;;;;;;;8.85;7.00;;;20.30;65.90;;;;;;4992131;28;88515;-86
2023/04/17 06:36:33;;;;;;;7.78;6.95;;;20.30;65.80;;;;;;4992156;28;88486;-87
2023/04/17 06:38:59;;;;;;;7.72;6.70;;;20.40;65.80;;;;;;4994708;28;87304;-88
2023/04/17 06:41:24;;;;;;;10.05;6.45;;;20.40;65.50;;;;;;4990945;28;87351;-86
2023/04/17 06:43:50;;;;;;;8.73;6.47;;;20.40;65.60;;;;;;5003128;28;92411;-87
2023/04/17 06:46:22;;;;;;;11.38;9.10;;;20.50;65.30;;;;;;5004181;28;90571;-87
2023/04/17 06:48:50;;;;;;;12.60;8.10;;;20.40;63.80;;;;;;4986627;28;87276;-85
2023/04/17 06:51:19;;;;;;;10.95;7.88;;;20.40;63.90;;;;;;4987413;28;89215;-86
2023/04/17 06:53:48;;;;;;;13.80;7.30;;;20.50;64.80;;;;;;4988836;28;89337;-88
2023/04/17 06:56:13;;;;;;;9.77;7.40;;;20.40;64.80;;;;;;4990329;28;90190;-88
2023/04/17 06:58:42;;;;;;;10.52;7.90;;;20.40;65.00;;;;;;4990442;28;87047;-88
2023/04/17 07:01:10;;;;;;;9.85;8.23;;;20.40;64.80;;;;;;4991014;28;87330;-87
2023/04/17 07:03:36;;;;;;;8.57;7.68;;;20.30;64.40;;;;;;4988225;28;90557;-86
2023/04/17 07:06:01;;;;;;;15.10;8.43;;;20.40;65.00;;;;;;4988266;28;87266;-89
2023/04/17 07:08:27;;;;;;;32.10;13.50;;;20.50;64.60;;;;;;4990759;28;88844;-87
2023/04/17 07:10:53;;;;;;;44.20;16.67;;;20.50;64.10;;;;;;5006225;28;88993;-88
2023/04/17 07:13:19;;;;;;;21.63;10.88;;;20.50;63.60;;;;;;4990300;28;87655;-88
2023/04/17 07:15:51;;;;;;;30.58;13.82;;;20.40;64.30;;;;;;4987694;28;88260;-88
2023/04/17 07:21:39;;;;;;;26.70;11.60;;;20.40;64.50;;;;;;4989967;28;86908;-88
2023/04/17 07:24:05;;;;;;;31.90;11.80;;;20.40;64.70;;;;;;5002879;28;90349;-89
2023/04/17 07:26:30;;;;;;;38.90;13.13;;;20.30;64.70;;;;;;4990366;28;87406;-88
2023/04/17 07:28:56;;;;;;;31.73;13.10;;;20.40;64.40;;;;;;4989601;28;86860;-88
2023/04/17 07:31:22;;;;;;;35.67;13.32;;;20.30;64.40;;;;;;4991327;28;87464;-88
2023/04/17 07:33:48;;;;;;;33.20;12.98;;;20.30;64.50;;;;;;4988620;28;89189;-89
2023/04/17 07:36:13;;;;;;;36.00;14.98;;;20.30;64.70;;;;;;4991101;28;89480;-88
2023/04/17 07:38:40;;;;;;;26.95;12.45;;;20.30;64.40;;;;;;5003826;28;86868;-88
2023/04/17 07:41:06;;;;;;;34.50;13.30;;;20.20;64.50;;;;;;4990533;28;90213;-88
2023/04/17 07:43:31;;;;;;;28.45;13.55;;;20.20;64.50;;;;;;5005663;28;90015;-88
2023/04/17 07:45:57;;;;;;;33.33;14.30;;;20.20;64.70;;;;;;4989173;28;87674;-88
2023/04/17 07:48:23;;;;;;;28.02;13.32;;;20.20;64.80;;;;;;4991809;28;86852;-88
2023/04/17 07:50:49;;;;;;;31.98;14.30;;;20.20;64.70;;;;;;5004279;28;89077;-89
2023/04/17 07:53:17;;;;;;;32.97;13.32;;;20.20;64.70;;;;;;4989503;28;87566;-88
2023/04/17 07:55:43;;;;;;;28.00;13.30;;;20.20;65.00;;;;;;4986411;28;90939;-88
2023/04/17 07:58:10;;;;;;;28.23;12.73;;;20.10;65.00;;;;;;4999789;28;88253;-88
2023/04/17 08:00:37;;;;;;;24.48;12.25;;;20.20;65.00;;;;;;4988603;28;87516;-88
2023/04/17 08:03:03;;;;;;;21.33;12.18;;;20.10;64.90;;;;;;4988744;28;88193;-88
2023/04/17 08:05:32;;;;;;;29.85;13.88;;;20.10;64.90;;;;;;5004014;28;90489;-88
2023/04/17 08:07:59;;;;;;;25.30;13.10;;;20.10;64.80;;;;;;4991963;28;87295;-88
2023/04/17 08:10:25;;;;;;;29.58;13.25;;;20.10;64.80;;;;;;4989019;28;86991;-88
2023/04/17 08:12:51;;;;;;;30.20;13.27;;;20.10;64.80;;;;;;4986878;28;88087;-88
2023/04/17 08:15:17;;;;;;;29.98;13.73;;;20.10;64.70;;;;;;4989819;28;88367;-88
2023/04/17 08:17:43;;;;;;;28.35;14.35;;;20.10;64.80;;;;;;5004846;28;87732;-88
2023/04/17 08:20:10;;;;;;;23.90;12.90;;;20.10;64.80;;;;;;4989635;28;87732;-88
2023/04/17 08:22:40;;;;;;;22.35;12.25;;;20.10;64.90;;;;;;5003819;28;93181;-88
2023/04/17 08:25:08;;;;;;;25.67;11.82;;;20.10;64.90;;;;;;5004032;28;90169;-89
2023/04/17 08:27:35;;;;;;;25.20;12.63;;;20.10;64.90;;;;;;4989079;28;86996;-88
2023/04/17 08:30:02;;;;;;;27.02;13.43;;;20.10;65.00;;;;;;4986716;28;87417;-88
2023/04/17 08:32:27;;;;;;;28.25;13.05;;;20.10;64.90;;;;;;4990800;28;87556;-88
2023/04/17 08:34:53;;;;;;;24.90;11.93;;;20.10;65.00;;;;;;4991746;28;87153;-89
2023/04/17 08:37:26;;;;;;;29.55;12.25;;;20.10;65.00;;;;;;4989266;28;87552;-88
2023/04/17 08:39:52;;;;;;;27.05;12.50;;;20.10;64.90;;;;;;4987566;28;86452;-89
2023/04/17 08:42:18;;;;;;;28.38;13.10;;;20.10;64.90;;;;;;5004670;28;91297;-88
2023/04/17 08:44:43;;;;;;;24.30;12.70;;;20.10;65.00;;;;;;5005665;28;91003;-88
2023/04/17 08:47:11;;;;;;;24.52;12.30;;;20.10;64.70;;;;;;4990848;28;88297;-88
2023/04/17 08:49:39;;;;;;;25.02;12.90;;;20.10;64.70;;;;;;5005427;28;95816;-88
2023/04/17 08:52:06;;;;;;;27.88;12.73;;;20.10;64.80;;;;;;4988861;28;88768;-88
2023/04/17 08:54:34;;;;;;;34.72;12.68;;;20.10;64.70;;;;;;4987372;28;87200;-88
2023/04/17 08:57:05;;;;;;;24.38;12.10;;;20.10;64.60;;;;;;4989075;28;87432;-89
2023/04/17 08:59:31;;;;;;;22.63;12.45;;;20.10;64.60;;;;;;4989253;28;87344;-89
2023/04/17 09:02:05;;;;;;;26.15;12.18;;;20.10;64.50;;;;;;4989373;28;88112;-89
2023/04/17 09:04:36;;;;;;;24.58;11.85;;;20.10;64.60;;;;;;5004092;28;89188;-88
2023/04/17 09:07:03;;;;;;;25.88;12.50;;;20.10;64.60;;;;;;4990004;28;87362;-88
2023/04/17 09:09:54;;;;;;;23.50;12.23;;;20.10;64.60;;;;;;4990218;28;87772;-88
2023/04/17 09:12:22;;;;;;;23.55;12.25;;;20.10;64.30;;;;;;5003083;28;91897;-89
2023/04/17 09:14:48;;;;;;;25.42;12.95;;;20.10;64.30;;;;;;4991228;28;88924;-89
2023/04/17 09:17:16;;;;;;;23.85;12.07;;;20.10;64.40;;;;;;5006303;28;87124;-88
2023/04/17 09:20:01;;;;;;;23.52;11.43;;;20.10;64.30;;;;;;4990927;28;87427;-88
2023/04/17 09:22:26;;;;;;;23.13;12.10;;;20.10;64.50;;;;;;4991595;28;89100;-88
2023/04/17 09:24:52;;;;;;;22.35;13.13;;;20.10;64.40;;;;;;4991464;28;88483;-88
2023/04/17 09:27:28;;;;;;;20.60;12.63;;;20.10;64.50;;;;;;4992120;28;87292;-88
2023/04/17 09:30:00;;;;;;;24.00;11.60;;;20.10;64.30;;;;;;4991370;28;87407;-88
2023/04/17 09:32:26;;;;;;;23.88;11.30;;;20.10;64.20;;;;;;4990963;28;87750;-89
2023/04/17 09:34:53;;;;;;;25.35;11.90;;;20.10;64.20;;;;;;5006048;28;90955;-89
2023/04/17 09:37:19;;;;;;;20.50;11.48;;;20.10;64.10;;;;;;4989638;28;88212;-88
2023/04/17 09:43:09;;;;;;;21.52;11.50;;;20.10;64.20;;;;;;4988613;28;87371;-89
2023/04/17 09:45:37;;;;;;;23.48;13.38;;;20.10;63.70;;;;;;4988485;28;89475;-88
2023/04/17 09:48:07;;;;;;;18.63;10.82;;;20.10;63.80;;;;;;4992018;28;87435;-88
2023/04/17 09:50:34;;;;;;;20.10;11.25;;;20.10;63.80;;;;;;4991231;28;87797;-89
2023/04/17 09:53:00;;;;;;;26.05;12.60;;;20.10;63.90;;;;;;4990130;28;90413;-88
2023/04/17 09:55:28;;;;;;;20.52;10.77;;;20.20;64.20;;;;;;4992484;28;86434;-89
2023/04/17 09:57:56;;;;;;;18.70;11.27;;;20.20;63.90;;;;;;4990263;28;87443;-89
2023/04/17 10:00:25;;;;;;;20.85;11.30;;;20.20;64.10;;;;;;5006139;28;90436;-88
2023/04/17 10:02:52;;;;;;;22.02;11.90;;;20.20;64.30;;;;;;5007090;28;92119;-89
2023/04/17 10:05:19;;;;;;;22.60;11.20;;;20.20;64.20;;;;;;5005190;28;91139;-88
2023/04/17 10:07:45;;;;;;;22.83;11.77;;;20.20;64.20;;;;;;4992949;28;87077;-88
2023/04/17 10:10:32;;;;;;;20.63;10.48;;;20.20;63.90;;;;;;5005558;28;90287;-89
2023/04/17 10:16:37;;;;;;;15.35;9.65;;;20.30;63.90;;;;;;4997163;28;87549;-88
2023/04/17 10:19:26;;;;;;;22.05;10.98;;;20.30;63.50;;;;;;4999323;28;87493;-88
2023/04/17 10:22:19;;;;;;;19.50;10.77;;;20.40;63.70;;;;;;4999484;28;87415;-87
2023/04/17 10:24:46;;;;;;;17.05;10.10;;;20.40;63.70;;;;;;4999045;28;87623;-89
2023/04/17 10:27:24;;;;;;;20.23;10.52;;;20.30;63.80;;;;;;4981532;28;91289;-89
2023/04/17 10:30:00;;;;;;;19.23;11.55;;;20.50;62.80;;;;;;4998182;28;88475;-87
2023/04/17 10:32:27;;;;;;;18.02;11.20;;;20.50;62.30;;;;;;4979824;28;87785;-89
2023/04/17 10:35:00;;;;;;;21.42;10.95;;;20.50;62.50;;;;;;4979597;28;87652;-87
2023/04/17 10:37:50;;;;;;;20.08;11.43;;;20.50;62.90;;;;;;4978403;28;91453;-87
2023/04/17 10:40:21;;;;;;;21.05;11.73;;;20.50;62.80;;;;;;4979098;28;87400;-87
2023/04/17 10:43:14;;;;;;;20.10;11.85;;;20.60;62.80;;;;;;4978342;28;88950;-87
2023/04/17 10:46:07;;;;;;;20.67;11.10;;;20.70;63.30;;;;;;4978573;28;87013;-86
2023/04/17 10:48:39;;;;;;;16.00;9.40;;;20.80;63.10;;;;;;4989232;28;87661;-86
2023/04/17 10:51:20;;;;;;;16.38;8.93;;;21.00;62.90;;;;;;4988702;28;87310;-87
2023/04/17 10:53:47;;;;;;;15.18;8.98;;;21.10;62.60;;;;;;4988906;28;88907;-88
2023/04/17 10:56:34;;;;;;;15.27;9.65;;;21.20;62.60;;;;;;4990381;28;91658;-90
2023/04/17 10:59:17;;;;;;;18.42;11.25;;;21.30;62.50;;;;;;4965264;28;90756;-87
2023/04/17 11:01:48;;;;;;;19.27;10.82;;;21.30;62.40;;;;;;4989994;28;87308;-89
2023/04/17 11:04:27;;;;;;;16.25;10.00;;;21.40;62.40;;;;;;4988702;28;86993;-88
2023/04/17 11:06:54;;;;;;;18.42;10.23;;;21.40;61.80;;;;;;4988709;28;88654;-90
2023/04/17 11:09:21;;;;;;;19.20;10.85;;;21.40;62.00;;;;;;4989427;28;87810;-88
2023/04/17 11:11:47;;;;;;;16.55;11.10;;;21.40;62.00;;;;;;4989465;28;87412;-89
2023/04/17 11:14:15;;;;;;;18.85;10.02;;;21.40;62.50;;;;;;4990266;28;86716;-88
2023/04/17 11:16:43;;;;;;;22.85;10.75;;;21.30;62.40;;;;;;4990223;28;88534;-89
2023/04/17 11:19:16;;;;;;;16.80;10.50;;;21.30;62.20;;;;;;4990174;28;88400;-89
2023/04/17 11:21:42;;;;;;;16.95;10.00;;;21.30;62.30;;;;;;4987830;28;87855;-91
2023/04/17 11:24:08;;;;;;;15.60;9.70;;;21.30;62.50;;;;;;4989023;28;88685;-89
2023/04/17 11:26:47;;;;;;;18.95;9.77;;;21.20;62.60;;;;;;4990155;28;88803;-89
2023/04/17 11:29:18;;;;;;;21.25;10.88;;;21.10;62.90;;;;;;4989196;28;88850;-87
2023/04/17 11:31:48;;;;;;;15.77;9.60;;;21.10;63.00;;;;;;5004038;28;87038;-88
2023/04/17 11:34:15;;;;;;;18.30;10.07;;;21.10;63.00;;;;;;4989238;28;87278;-88
2023/04/17 11:36:58;;;;;;;16.00;9.43;;;21.10;63.10;;;;;;5001950;28;91298;-88
2023/04/17 11:39:26;;;;;;;16.77;10.18;;;21.10;63.00;;;;;;4991225;28;88161;-87
2023/04/17 11:41:52;;;;;;;22.92;13.75;;;21.10;62.70;;;;;;4988969;28;86882;-88
2023/04/17 11:44:22;;;;;;;24.58;13.32;;;21.00;61.90;;;;;;5005015;28;90571;-88
2023/04/17 11:46:50;;;;;;;18.50;12.25;;;20.90;61.50;;;;;;4991025;28;89631;-88
2023/04/17 11:49:26;;;;;;;19.65;12.13;;;20.90;62.40;;;;;;4988250;28;86791;-88
2023/04/17 11:51:52;;;;;;;18.38;11.13;;;20.90;62.70;;;;;;4988944;28;86912;-87
2023/04/17 11:54:28;;;;;;;19.63;11.18;;;21.00;63.00;;;;;;5005007;28;90374;-88
2023/04/17 11:56:57;;;;;;;21.52;12.23;;;21.00;62.90;;;;;;4989181;28;89345;-87
2023/04/17 11:59:31;;;;;;;23.02;13.23;;;21.10;63.70;;;;;;4990953;28;87396;-87
2023/04/17 12:01:59;;;;;;;21.30;11.38;;;21.10;63.60;;;;;;4991035;28;87148;-88
2023/04/17 12:04:25;;;;;;;18.98;11.68;;;21.10;63.90;;;;;;4989115;28;86940;-88
2023/04/17 12:06:50;;;;;;;17.48;11.75;;;21.10;64.10;;;;;;4991363;28;88600;-87
2023/04/17 12:09:20;;;;;;;23.60;11.05;;;21.10;64.40;;;;;;5002668;28;91061;-89
2023/04/17 12:11:47;;;;;;;24.60;11.23;;;21.10;63.80;;;;;;5002674;28;88098;-88
2023/04/17 12:14:13;;;;;;;19.58;11.63;;;21.10;63.70;;;;;;5005714;28;90336;-89
2023/04/17 12:16:38;;;;;;;18.80;11.02;;;21.10;63.60;;;;;;4988674;28;88497;-88
2023/04/17 12:19:04;;;;;;;22.00;11.20;;;21.10;63.70;;;;;;4989063;28;88020;-88
2023/04/17 12:21:30;;;;;;;20.42;11.35;;;21.10;63.80;;;;;;4989142;28;87541;-89
2023/04/17 12:23:56;;;;;;;17.02;10.88;;;21.10;64.10;;;;;;4989351;28;87787;-88
2023/04/17 12:26:23;;;;;;;17.23;11.23;;;21.10;63.90;;;;;;4986036;28;88301;-88
2023/04/17 12:28:49;;;;;;;17.92;10.90;;;21.10;64.00;;;;;;4988882;28;87550;-88
2023/04/17 12:31:15;;;;;;;17.08;10.15;;;21.20;64.20;;;;;;5003027;28;87596;-89
2023/04/17 12:33:41;;;;;;;16.52;10.63;;;21.20;64.30;;;;;;4990471;28;87282;-88
2023/04/17 12:36:07;;;;;;;18.85;10.80;;;21.20;63.20;;;;;;4986697;28;89477;-90
2023/04/17 12:38:33;;;;;;;19.73;11.57;;;21.30;63.20;;;;;;4991194;28;90132;-88
2023/04/17 12:40:58;;;;;;;18.10;11.52;;;21.20;63.30;;;;;;5008713;28;87247;-86
2023/04/17 12:43:24;;;;;;;20.58;12.65;;;21.20;63.20;;;;;;5007408;28;90915;-89
2023/04/17 12:45:51;;;;;;;18.55;12.10;;;21.20;63.50;;;;;;4991341;28;87343;-88
2023/04/17 12:48:17;;;;;;;18.80;11.93;;;21.30;63.10;;;;;;4991132;28;88347;-87
2023/04/17 12:50:43;;;;;;;18.77;11.48;;;21.30;63.20;;;;;;4991417;28;87452;-87
2023/04/17 12:53:12;;;;;;;23.17;11.25;;;21.30;63.20;;;;;;4993807;28;87301;-87
2023/04/17 12:55:42;;;;;;;21.23;11.88;;;21.30;63.00;;;;;;4993192;28;91544;-88
2023/04/17 12:58:10;;;;;;;16.33;10.98;;;21.30;62.70;;;;;;4991888;28;88405;-88
2023/04/17 13:00:37;;;;;;;20.23;11.93;;;21.30;62.90;;;;;;4992185;28;87910;-88
2023/04/17 13:03:04;;;;;;;17.13;11.13;;;21.30;63.00;;;;;;4993096;28;87971;-87
2023/04/17 13:05:30;;;;;;;20.02;11.10;;;21.30;63.00;;;;;;4990042;28;87536;-87
2023/04/17 13:07:56;;;;;;;18.20;11.38;;;21.30;63.20;;;;;;4991564;28;88262;-87
2023/04/17 13:10:22;;;;;;;15.75;10.00;;;21.30;63.00;;;;;;4991550;28;96231;-87